createdAt,value
2018-02-16T00:00:19.395Z,11
2018-02-16T00:02:19.192Z,10.9
2018-02-16T00:04:18.996Z,9.9
2018-02-16T00:06:18.542Z,8.8
2018-02-16T00:08:19.329Z,10
2018-02-16T00:10:18.652Z,12.7
2018-02-16T00:12:19.453Z,11.1
2018-02-16T00:14:19.223Z,11.3
2018-02-16T00:16:18.709Z,10
2018-02-16T00:18:18.579Z,10.8
2018-02-16T00:20:19.397Z,9.1
2018-02-16T00:22:19.138Z,11.9
2018-02-16T00:24:18.918Z,10.7
2018-02-16T00:26:19.448Z,9.6
2018-02-16T00:28:19.199Z,10.7
2018-02-16T00:30:18.974Z,10.8
2018-02-16T00:32:18.756Z,10.2
2018-02-16T00:34:18.478Z,12
2018-02-16T00:36:18.940Z,11.1
2018-02-16T00:38:18.722Z,11.2
2018-02-16T00:40:19.028Z,11.4
2018-02-16T00:42:18.810Z,10.7
2018-02-16T00:44:18.592Z,11.5
2018-02-16T00:46:19.061Z,10.2
2018-02-16T00:48:18.839Z,11.5
2018-02-16T00:50:18.659Z,10.8
2018-02-16T00:52:19.427Z,13.3
2018-02-16T00:54:19.209Z,10.3
2018-02-16T00:56:18.772Z,11.3
2018-02-16T00:58:18.556Z,10.7
2018-02-16T01:00:19.344Z,11.4
2018-02-16T01:02:19.140Z,10.8
2018-02-16T01:04:18.929Z,12.1
2018-02-16T01:06:18.544Z,11.7
2018-02-16T01:08:19.363Z,13.9
2018-02-16T01:10:18.693Z,11
2018-02-16T01:12:19.478Z,10.8
2018-02-16T01:14:19.232Z,11.2
2018-02-16T01:16:18.708Z,10.8
2018-02-16T01:18:18.563Z,11.8
2018-02-16T01:20:19.398Z,11.1
2018-02-16T01:22:19.132Z,11.2
2018-02-16T01:24:18.916Z,11.2
2018-02-16T01:26:19.456Z,11.9
2018-02-16T01:28:19.260Z,12.5
2018-02-16T01:30:19.092Z,11.3
2018-02-16T01:32:18.843Z,13.2
2018-02-16T01:34:18.634Z,10.5
2018-02-16T01:36:19.218Z,11.3
2018-02-16T01:38:19.020Z,12.7
2018-02-16T01:40:19.342Z,12.6
2018-02-16T01:42:19.151Z,12.4
2018-02-16T01:44:18.903Z,12.6
2018-02-16T01:46:19.390Z,11.8
2018-02-16T01:48:19.176Z,13.3
2018-02-16T01:50:18.937Z,12.5
2018-02-16T01:52:18.696Z,12.8
2018-02-16T01:54:19.476Z,13.4
2018-02-16T01:56:19.057Z,11.4
2018-02-16T01:58:18.843Z,12.5
2018-02-16T02:00:18.615Z,12.5
2018-02-16T02:02:19.408Z,14.1
2018-02-16T02:04:19.192Z,12.9
2018-02-16T02:06:18.648Z,13.4
2018-02-16T02:08:19.441Z,13
2018-02-16T02:10:18.718Z,14
2018-02-16T02:12:18.503Z,14.5
2018-02-16T02:14:19.244Z,11.5
2018-02-16T02:16:18.715Z,14.1
2018-02-16T02:18:18.563Z,15.2
2018-02-16T02:20:19.384Z,13.5
2018-02-16T02:22:19.141Z,13.4
2018-02-16T02:24:18.924Z,14.1
2018-02-16T02:26:19.459Z,11.2
2018-02-16T02:28:19.251Z,13.8
2018-02-16T02:30:19.025Z,13.8
2018-02-16T02:32:18.804Z,13.6
2018-02-16T02:34:18.590Z,13.5
2018-02-16T02:36:19.157Z,14.1
2018-02-16T02:38:18.897Z,12.3
2018-02-16T02:40:19.115Z,15
2018-02-16T02:42:18.905Z,15.4
2018-02-16T02:44:18.701Z,14.8
2018-02-16T02:46:19.291Z,14.8
2018-02-16T02:48:19.077Z,16.6
2018-02-16T02:50:18.861Z,15.4
2018-02-16T02:52:18.643Z,12.8
2018-02-16T02:54:19.393Z,14.5
2018-02-16T02:56:18.856Z,13.9
2018-02-16T02:58:18.642Z,16.5
2018-02-16T03:00:19.391Z,15.3
2018-02-16T03:02:19.166Z,15.2
2018-02-16T03:04:18.971Z,15.7
2018-02-16T03:06:18.522Z,15.2
2018-02-16T03:08:19.266Z,16.1
2018-02-16T03:10:18.587Z,16.7
2018-02-16T03:12:19.335Z,16
2018-02-16T03:14:19.131Z,15.2
2018-02-16T03:16:18.707Z,15.2
2018-02-16T03:18:18.548Z,15.3
2018-02-16T03:20:19.295Z,16
2018-02-16T03:22:19.055Z,16.7
2018-02-16T03:24:18.837Z,15
2018-02-16T03:26:19.372Z,16.1
2018-02-16T03:28:19.125Z,17.9
2018-02-16T03:30:18.941Z,15.8
2018-02-16T03:32:18.739Z,14.9
2018-02-16T03:34:18.524Z,17.7
2018-02-16T03:36:19.118Z,17.2
2018-02-16T03:38:18.870Z,17.3
2018-02-16T03:40:19.090Z,18.1
2018-02-16T03:42:18.886Z,17.8
2018-02-16T03:44:18.672Z,18.8
2018-02-16T03:46:19.122Z,17.9
2018-02-16T03:48:18.919Z,17.9
2018-02-16T03:50:18.736Z,16.9
2018-02-16T03:52:18.521Z,17.2
2018-02-16T03:54:19.284Z,18.3
2018-02-16T03:56:18.810Z,18
2018-02-16T03:58:18.594Z,17.6
2018-02-16T04:00:19.369Z,18.4
2018-02-16T04:02:19.154Z,20
2018-02-16T04:04:18.944Z,20.2
2018-02-16T04:06:19.466Z,19
2018-02-16T04:08:19.227Z,19.2
2018-02-16T04:10:18.483Z,16.9
2018-02-16T04:12:19.271Z,18.4
2018-02-16T04:14:19.061Z,16.4
2018-02-16T04:16:18.630Z,19
2018-02-16T04:18:19.451Z,19.4
2018-02-16T04:20:19.240Z,18.2
2018-02-16T04:22:19.036Z,18.4
2018-02-16T04:24:18.829Z,17.4
2018-02-16T04:26:19.385Z,17.8
2018-02-16T04:28:19.128Z,17.7
2018-02-16T04:30:18.927Z,17.1
2018-02-16T04:32:18.710Z,16.3
2018-02-16T04:34:19.466Z,16.9
2018-02-16T04:36:18.950Z,17.8
2018-02-16T04:38:18.741Z,17.2
2018-02-16T04:40:19.067Z,15.3
2018-02-16T04:42:18.860Z,16.5
2018-02-16T04:44:18.645Z,15.8
2018-02-16T04:46:19.193Z,14.4
2018-02-16T04:48:18.995Z,16.2
2018-02-16T04:50:18.821Z,15.4
2018-02-16T04:52:18.604Z,16.8
2018-02-16T04:54:19.354Z,16.7
2018-02-16T04:56:18.828Z,13.9
2018-02-16T04:58:18.615Z,18.5
2018-02-16T05:00:19.370Z,16.4
2018-02-16T05:02:19.153Z,16.3
2018-02-16T05:04:18.940Z,17.4
2018-02-16T05:06:19.496Z,16.5
2018-02-16T05:08:19.240Z,13.8
2018-02-16T05:10:18.495Z,15.2
2018-02-16T05:12:19.287Z,13.7
2018-02-16T05:14:19.073Z,13.3
2018-02-16T05:16:18.631Z,14.6
2018-02-16T05:18:19.452Z,15.8
2018-02-16T05:20:19.236Z,15.1
2018-02-16T05:22:19.021Z,14.9
2018-02-16T05:24:18.810Z,15.5
2018-02-16T05:26:19.378Z,13.5
2018-02-16T05:28:19.125Z,13.6
2018-02-16T05:30:18.936Z,16
2018-02-16T05:32:18.720Z,13.9
2018-02-16T05:34:19.470Z,14.6
2018-02-16T05:36:18.948Z,14.7
2018-02-16T05:38:18.736Z,13.1
2018-02-16T05:40:19.045Z,13
2018-02-16T05:42:18.842Z,15
2018-02-16T05:44:18.623Z,14.5
2018-02-16T05:46:19.087Z,12.8
2018-02-16T05:48:18.882Z,15
2018-02-16T05:50:18.703Z,14.3
2018-02-16T05:52:19.461Z,13.4
2018-02-16T05:54:19.259Z,13.9
2018-02-16T05:56:18.810Z,13.6
2018-02-16T05:58:18.604Z,13
2018-02-16T06:00:19.368Z,11.8
2018-02-16T06:02:19.157Z,13
2018-02-16T06:04:18.961Z,12.3
2018-02-16T06:06:18.525Z,13.5
2018-02-16T06:08:19.251Z,12.2
2018-02-16T06:10:18.572Z,13.7
2018-02-16T06:12:19.327Z,12.5
2018-02-16T06:14:19.123Z,13.4
2018-02-16T06:16:18.660Z,11.3
2018-02-16T06:18:18.522Z,12.4
2018-02-16T06:20:19.284Z,10.9
2018-02-16T06:22:19.056Z,12.8
2018-02-16T06:24:18.848Z,13.7
2018-02-16T06:26:19.350Z,12.5
2018-02-16T06:28:19.104Z,11.1
2018-02-16T06:30:18.904Z,11.9
2018-02-16T06:32:18.688Z,11.3
2018-02-16T06:34:19.439Z,11.5
2018-02-16T06:36:18.938Z,11.3
2018-02-16T06:38:18.722Z,11.5
2018-02-16T06:40:19.026Z,11.5
2018-02-16T06:42:18.806Z,11
2018-02-16T06:44:18.590Z,12.5
2018-02-16T06:46:19.055Z,10.2
2018-02-16T06:48:18.830Z,10.3
2018-02-16T06:50:18.635Z,9.3
2018-02-16T06:52:19.407Z,11.2
2018-02-16T06:54:19.194Z,10.3
2018-02-16T06:56:18.758Z,10.6
2018-02-16T06:58:18.546Z,11.8
2018-02-16T07:00:19.336Z,11.2
2018-02-16T07:02:19.135Z,9.5
2018-02-16T07:04:18.917Z,11.1
2018-02-16T07:06:19.393Z,9.9
2018-02-16T07:08:19.169Z,10.2
2018-02-16T07:10:19.454Z,11.3
2018-02-16T07:12:19.244Z,10.1
2018-02-16T07:14:19.027Z,12.3
2018-02-16T07:16:18.566Z,11.4
2018-02-16T07:18:19.366Z,9.1
2018-02-16T07:20:19.166Z,7.7
2018-02-16T07:22:18.953Z,11.8
2018-02-16T07:24:18.684Z,9.1
2018-02-16T07:26:19.191Z,9.9
2018-02-16T07:28:18.980Z,9.8
2018-02-16T07:30:18.805Z,9.3
2018-02-16T07:32:18.586Z,10.9
2018-02-16T07:34:19.364Z,9.3
2018-02-16T07:36:18.889Z,10.1
2018-02-16T07:38:18.675Z,7.5
2018-02-16T07:40:18.897Z,9.4
2018-02-16T07:42:18.651Z,9.6
2018-02-16T07:44:19.443Z,8.9
2018-02-16T07:46:19.013Z,8.9
2018-02-16T07:48:18.802Z,9.7
2018-02-16T07:50:18.619Z,9.1
2018-02-16T07:52:19.397Z,9.5
2018-02-16T07:54:19.192Z,8.1
2018-02-16T07:56:18.737Z,7.7
2018-02-16T07:58:18.531Z,7.5
2018-02-16T08:00:19.316Z,8.4
2018-02-16T08:02:19.111Z,8.1
2018-02-16T08:04:18.898Z,7.9
2018-02-16T08:06:19.473Z,7.2
2018-02-16T08:08:19.228Z,7.9
2018-02-16T08:10:18.570Z,9
2018-02-16T08:12:19.317Z,8.2
2018-02-16T08:14:19.123Z,8.3
2018-02-16T08:16:18.666Z,6.6
2018-02-16T08:18:18.529Z,6.6
2018-02-16T08:20:19.282Z,7
2018-02-16T08:22:19.086Z,8.1
2018-02-16T08:24:18.914Z,5.9
2018-02-16T08:26:19.450Z,7.1
2018-02-16T08:28:19.247Z,6.5
2018-02-16T08:30:19.026Z,6
2018-02-16T08:32:18.811Z,5.9
2018-02-16T08:34:18.607Z,6.2
2018-02-16T08:36:19.177Z,7.5
2018-02-16T08:38:18.983Z,6.8
2018-02-16T08:40:19.142Z,6.4
2018-02-16T08:42:18.925Z,5.4
2018-02-16T08:44:18.718Z,4.9
2018-02-16T08:46:19.240Z,5.8
2018-02-16T08:48:18.994Z,4.6
2018-02-16T08:50:18.793Z,5.9
2018-02-16T08:52:18.579Z,6.7
2018-02-16T08:54:19.334Z,3.4
2018-02-16T08:56:18.827Z,4.7
2018-02-16T08:58:18.617Z,5
2018-02-16T09:00:19.380Z,4.7
2018-02-16T09:02:19.172Z,5.8
2018-02-16T09:04:18.952Z,5
2018-02-16T09:06:19.458Z,3.8
2018-02-16T09:08:19.210Z,3.4
2018-02-16T09:10:19.483Z,5.5
2018-02-16T09:12:19.271Z,4.6
2018-02-16T09:14:19.066Z,4.3
2018-02-16T09:16:18.614Z,4.4
2018-02-16T09:18:19.497Z,3.9
2018-02-16T09:20:19.268Z,4.2
2018-02-16T09:22:19.054Z,4.3
2018-02-16T09:24:18.843Z,3.8
2018-02-16T09:26:19.398Z,3.5
2018-02-16T09:28:19.136Z,3.6
2018-02-16T09:30:18.934Z,2.8
2018-02-16T09:32:18.724Z,4.3
2018-02-16T09:34:18.523Z,3.6
2018-02-16T09:36:19.001Z,3.1
2018-02-16T09:38:18.788Z,3.8
2018-02-16T09:40:19.061Z,3.6
2018-02-16T09:42:18.857Z,3.1
2018-02-16T09:44:18.654Z,3.3
2018-02-16T09:46:19.135Z,3.9
2018-02-16T09:48:18.920Z,3.5
2018-02-16T09:50:18.741Z,3.7
2018-02-16T09:52:18.544Z,2.9
2018-02-16T09:54:19.321Z,2.9
2018-02-16T09:56:18.832Z,3.1
2018-02-16T09:58:18.629Z,4.4
2018-02-16T10:00:19.412Z,3.7
2018-02-16T10:02:19.188Z,2.6
2018-02-16T10:04:18.986Z,3
2018-02-16T10:06:18.543Z,4.2
2018-02-16T10:08:19.332Z,4.4
2018-02-16T10:10:18.665Z,5.6
2018-02-16T10:12:19.468Z,3.9
2018-02-16T10:14:19.223Z,3.9
2018-02-16T10:16:18.732Z,4.5
2018-02-16T10:18:18.588Z,4
2018-02-16T10:20:19.424Z,2.7
2018-02-16T10:22:19.194Z,4.9
2018-02-16T10:24:18.966Z,6.4
2018-02-16T10:26:19.460Z,5.2
2018-02-16T10:28:19.222Z,3.5
2018-02-16T10:30:19.007Z,4.6
2018-02-16T10:32:18.799Z,6.3
2018-02-16T10:34:18.611Z,6.2
2018-02-16T10:36:19.219Z,6.3
2018-02-16T10:38:19.029Z,6.5
2018-02-16T10:40:19.357Z,6
2018-02-16T10:42:19.147Z,6.3
2018-02-16T10:44:18.890Z,6.8
2018-02-16T10:46:19.397Z,5.3
2018-02-16T10:48:19.192Z,7.2
2018-02-16T10:50:18.962Z,6
2018-02-16T10:52:18.730Z,7.7
2018-02-16T10:54:18.532Z,6
2018-02-16T10:56:19.182Z,7.6
2018-02-16T10:58:18.991Z,8
2018-02-16T11:00:18.820Z,7
2018-02-16T11:02:18.608Z,6.7
2018-02-16T11:04:19.399Z,8.1
2018-02-16T11:06:18.952Z,8.8
2018-02-16T11:08:18.757Z,7
2018-02-16T11:10:19.033Z,7.3
2018-02-16T11:12:18.830Z,6.7
2018-02-16T11:14:18.630Z,8
2018-02-16T11:16:19.204Z,7.1
2018-02-16T11:18:19.069Z,6.9
2018-02-16T11:20:18.874Z,8.4
2018-02-16T11:22:18.690Z,8.6
2018-02-16T11:24:19.504Z,9
2018-02-16T11:26:19.131Z,7.7
2018-02-16T11:28:18.935Z,7.4
2018-02-16T11:30:18.768Z,7.1
2018-02-16T11:32:18.518Z,7.9
2018-02-16T11:34:19.330Z,7.9
2018-02-16T11:36:18.907Z,7.1
2018-02-16T11:38:18.717Z,8.7
2018-02-16T11:40:19.137Z,8
2018-02-16T11:42:19.468Z,7.8
2018-02-16T11:44:19.242Z,7.5
2018-02-16T11:46:18.765Z,7.9
2018-02-16T11:48:18.557Z,8.9
2018-02-16T11:50:19.372Z,8.2
2018-02-16T11:52:19.128Z,7.1
2018-02-16T11:54:18.930Z,8.6
2018-02-16T11:56:19.458Z,7.7
2018-02-16T11:58:19.217Z,7
2018-02-16T12:00:19.006Z,7.9
2018-02-16T12:02:18.802Z,9.2
2018-02-16T12:04:18.603Z,6.9
2018-02-16T12:06:19.174Z,7.9
2018-02-16T12:08:18.923Z,7.6
2018-02-16T12:10:19.122Z,9.3
2018-02-16T12:12:18.907Z,9.1
2018-02-16T12:14:18.704Z,9.3
2018-02-16T12:16:18.717Z,7.8
2018-02-16T12:18:18.575Z,8.3
2018-02-16T12:20:19.402Z,7.4
2018-02-16T12:22:19.176Z,7.7
2018-02-16T12:24:18.960Z,8.8
2018-02-16T12:26:19.493Z,9.3
2018-02-16T12:28:19.298Z,6.2
2018-02-16T12:30:19.148Z,7.9
2018-02-16T12:32:18.895Z,9.3
2018-02-16T12:34:18.677Z,8.3
2018-02-16T12:36:19.246Z,8.9
2018-02-16T12:38:19.052Z,10.2
2018-02-16T12:40:19.389Z,7.7
2018-02-16T12:42:19.189Z,8.8
2018-02-16T12:44:18.924Z,9.4
2018-02-16T12:46:19.422Z,7.9
2018-02-16T12:48:19.239Z,7.9
2018-02-16T12:50:19.100Z,10.2
2018-02-16T12:52:18.909Z,7.6
2018-02-16T12:54:18.673Z,7.8
2018-02-16T12:56:19.182Z,6.6
2018-02-16T12:58:18.974Z,8.2
2018-02-16T13:00:18.803Z,6.5
2018-02-16T13:02:18.624Z,7.5
2018-02-16T13:04:19.421Z,6.4
2018-02-16T13:06:18.955Z,6.3
2018-02-16T13:08:18.758Z,7.9
2018-02-16T13:10:19.100Z,7.6
2018-02-16T13:12:18.904Z,7
2018-02-16T13:14:18.744Z,7.6
2018-02-16T13:16:19.244Z,7.5
2018-02-16T13:18:19.124Z,7.1
2018-02-16T13:20:18.914Z,7.7
2018-02-16T13:22:18.703Z,6.6
2018-02-16T13:24:19.501Z,6.2
2018-02-16T13:26:19.088Z,6.4
2018-02-16T13:28:18.896Z,7.5
2018-02-16T13:30:18.679Z,5.2
2018-02-16T13:32:19.479Z,6
2018-02-16T13:34:19.248Z,4.1
2018-02-16T13:36:18.857Z,3.6
2018-02-16T13:38:18.656Z,4.1
2018-02-16T13:40:18.894Z,4
2018-02-16T13:42:18.666Z,4.1
2018-02-16T13:44:19.475Z,3.8
2018-02-16T13:46:19.030Z,4.6
2018-02-16T13:48:18.830Z,3.9
2018-02-16T13:50:18.663Z,3.2
2018-02-16T13:52:19.433Z,3.4
2018-02-16T13:54:19.227Z,2.4
2018-02-16T13:56:18.779Z,3.3
2018-02-16T13:58:18.590Z,4.2
2018-02-16T14:00:19.391Z,2.8
2018-02-16T14:02:19.184Z,2.6
2018-02-16T14:04:18.990Z,3.3
2018-02-16T14:06:18.550Z,3
2018-02-16T14:08:19.344Z,3.5
2018-02-16T14:10:18.673Z,3.4
2018-02-16T14:12:19.438Z,4.5
2018-02-16T14:14:19.230Z,2.9
2018-02-16T14:16:18.718Z,3.4
2018-02-16T14:18:18.580Z,4.3
2018-02-16T14:20:19.403Z,3.2
2018-02-16T14:22:19.201Z,3.3
2018-02-16T14:24:18.970Z,3.6
2018-02-16T14:26:19.511Z,3.2
2018-02-16T14:28:19.314Z,3.3
2018-02-16T14:30:19.143Z,2.8
2018-02-16T14:32:18.902Z,3.6
2018-02-16T14:34:18.690Z,4.1
2018-02-16T14:36:19.256Z,3.1
2018-02-16T14:38:19.075Z,2.9
2018-02-16T14:40:19.377Z,2.7
2018-02-16T14:42:19.196Z,2.6
2018-02-16T14:44:19.000Z,4.1
2018-02-16T14:46:18.546Z,2.6
2018-02-16T14:48:19.324Z,2.4
2018-02-16T14:50:19.159Z,2.9
2018-02-16T14:52:18.963Z,4.1
2018-02-16T14:54:18.774Z,3.1
2018-02-16T14:56:19.356Z,3.6
2018-02-16T14:58:19.119Z,3.5
2018-02-16T15:00:18.946Z,3.1
2018-02-16T15:02:18.754Z,3.5
2018-02-16T15:04:18.558Z,3.6
2018-02-16T15:06:19.160Z,3.2
2018-02-16T15:08:18.900Z,3.2
2018-02-16T15:10:19.107Z,3.2
2018-02-16T15:12:18.905Z,2.8
2018-02-16T15:14:18.703Z,2.8
2018-02-16T15:16:19.278Z,3.1
2018-02-16T15:18:19.138Z,2.5
2018-02-16T15:20:18.908Z,3.6
2018-02-16T15:22:18.692Z,3
2018-02-16T15:24:19.498Z,3.3
2018-02-16T15:26:19.084Z,3.5
2018-02-16T15:28:18.889Z,2.4
2018-02-16T15:30:18.675Z,3.9
2018-02-16T15:32:19.469Z,5
2018-02-16T15:34:19.275Z,2.7
2018-02-16T15:36:19.347Z,3.3
2018-02-16T15:38:19.156Z,3.1
2018-02-16T15:40:19.409Z,3
2018-02-16T15:42:19.211Z,3.3
2018-02-16T15:44:19.023Z,3.3
2018-02-16T15:46:18.592Z,2.7
2018-02-16T15:48:19.351Z,3.6
2018-02-16T15:50:19.184Z,4.2
2018-02-16T15:52:18.990Z,3.4
2018-02-16T15:54:18.741Z,3.4
2018-02-16T15:56:19.268Z,3.5
2018-02-16T15:58:19.049Z,3.6
2018-02-16T16:00:18.874Z,3.4
2018-02-16T16:02:18.682Z,3.7
2018-02-16T16:04:19.447Z,3.2
2018-02-16T16:06:18.947Z,3.7
2018-02-16T16:08:18.755Z,3.6
2018-02-16T16:10:19.084Z,3.8
2018-02-16T16:12:18.888Z,5.2
2018-02-16T16:14:18.688Z,4
2018-02-16T16:16:19.285Z,3.3
2018-02-16T16:18:19.165Z,3.2
2018-02-16T16:20:18.920Z,4
2018-02-16T16:22:18.696Z,3.9
2018-02-16T16:24:19.485Z,4.5
2018-02-16T16:26:18.487Z,4.2
2018-02-16T16:28:19.281Z,3.8
2018-02-16T16:30:19.048Z,3.7
2018-02-16T16:32:18.827Z,4.2
2018-02-16T16:34:18.626Z,4.2
2018-02-16T16:36:19.201Z,3
2018-02-16T16:38:19.027Z,4.5
2018-02-16T16:40:19.330Z,3.4
2018-02-16T16:42:19.121Z,3.2
2018-02-16T16:44:18.882Z,4.1
2018-02-16T16:46:19.381Z,3.7
2018-02-16T16:48:19.178Z,3
2018-02-16T16:50:18.952Z,4
2018-02-16T16:52:18.717Z,2.7
2018-02-16T16:54:19.515Z,3.7
2018-02-16T16:56:19.081Z,4
2018-02-16T16:58:18.882Z,3.2
2018-02-16T17:00:18.653Z,3.2
2018-02-16T17:02:19.437Z,4.4
2018-02-16T17:04:19.196Z,4.5
2018-02-16T17:06:18.726Z,4.6
2018-02-16T17:08:18.490Z,4
2018-02-16T17:10:18.771Z,4.7
2018-02-16T17:12:18.583Z,3.3
2018-02-16T17:14:19.385Z,2.6
2018-02-16T17:16:19.468Z,4
2018-02-16T17:18:19.320Z,5.8
2018-02-16T17:20:19.169Z,4.1
2018-02-16T17:22:18.975Z,3.4
2018-02-16T17:24:18.718Z,4.7
2018-02-16T17:26:18.744Z,4.3
2018-02-16T17:28:18.582Z,5
2018-02-16T17:30:19.360Z,3.8
2018-02-16T17:32:19.151Z,5.4
2018-02-16T17:34:18.957Z,4.6
2018-02-16T17:36:18.522Z,4.9
2018-02-16T17:38:19.264Z,4.5
2018-02-16T17:40:18.590Z,7.6
2018-02-16T17:42:19.348Z,5
2018-02-16T17:44:19.139Z,6.4
2018-02-16T17:46:18.670Z,4.5
2018-02-16T17:48:19.457Z,4.6
2018-02-16T17:50:19.237Z,4.7
2018-02-16T17:52:19.029Z,4.4
2018-02-16T17:54:18.818Z,3.8
2018-02-16T17:56:19.397Z,3.6
2018-02-16T17:58:19.203Z,4.2
2018-02-16T18:00:19.013Z,4
2018-02-16T18:02:18.817Z,4.3
2018-02-16T18:04:18.608Z,4.2
2018-02-16T18:06:19.266Z,5.3
2018-02-16T18:08:19.066Z,5.2
2018-02-16T18:10:19.357Z,4.2
2018-02-16T18:12:19.153Z,4.9
2018-02-16T18:14:18.907Z,4.7
2018-02-16T18:16:19.448Z,5.3
2018-02-16T18:18:19.311Z,5.4
2018-02-16T18:20:19.124Z,4.5
2018-02-16T18:22:18.916Z,4.6
2018-02-16T18:24:18.669Z,3.6
2018-02-16T18:26:19.195Z,5.3
2018-02-16T18:28:18.980Z,5
2018-02-16T18:30:18.791Z,5.4
2018-02-16T18:32:18.582Z,6
2018-02-16T18:34:19.370Z,5.2
2018-02-16T18:36:19.392Z,5.6
2018-02-16T18:38:19.201Z,5.3
2018-02-16T18:40:18.589Z,5.2
2018-02-16T18:42:19.357Z,3.8
2018-02-16T18:44:19.148Z,4.4
2018-02-16T18:46:18.683Z,5.4
2018-02-16T18:48:19.411Z,5.1
2018-02-16T18:50:19.214Z,5
2018-02-16T18:52:19.000Z,4.2
2018-02-16T18:54:18.740Z,4.8
2018-02-16T18:56:19.326Z,5.3
2018-02-16T18:58:19.085Z,4.7
2018-02-16T19:00:18.893Z,4.7
2018-02-16T19:02:18.674Z,5
2018-02-16T19:04:19.430Z,7.2
2018-02-16T19:06:18.937Z,6.5
2018-02-16T19:08:18.729Z,5.2
2018-02-16T19:10:19.039Z,3.7
2018-02-16T19:12:18.827Z,5.2
2018-02-16T19:14:18.611Z,5.2
2018-02-16T19:16:19.086Z,5.8
2018-02-16T19:18:18.932Z,4.8
2018-02-16T19:20:18.747Z,4.1
2018-02-16T19:22:18.549Z,5.2
2018-02-16T19:24:19.328Z,5.2
2018-02-16T19:26:18.833Z,5.2
2018-02-16T19:28:18.629Z,4.4
2018-02-16T19:30:19.395Z,5.3
2018-02-16T19:32:19.174Z,5
2018-02-16T19:34:18.974Z,4.4
2018-02-16T19:36:18.518Z,4.4
2018-02-16T19:38:19.274Z,4.7
2018-02-16T19:40:18.598Z,5.3
2018-02-16T19:42:19.364Z,5.5
2018-02-16T19:44:19.160Z,4.3
2018-02-16T19:46:18.672Z,5.5
2018-02-16T19:48:19.449Z,4.6
2018-02-16T19:50:19.223Z,5.8
2018-02-16T19:52:19.014Z,4.3
2018-02-16T19:54:18.743Z,5.3
2018-02-16T19:56:19.278Z,4.9
2018-02-16T19:58:19.056Z,4.3
2018-02-16T20:00:18.876Z,4.8
2018-02-16T20:02:18.657Z,5.5
2018-02-16T20:04:19.419Z,4.9
2018-02-16T20:06:18.929Z,5.3
2018-02-16T20:08:18.712Z,4.7
2018-02-16T20:10:18.938Z,4.7
2018-02-16T20:12:18.673Z,5.1
2018-02-16T20:14:19.464Z,5.7
2018-02-16T20:16:19.021Z,5.6
2018-02-16T20:18:18.873Z,4.9
2018-02-16T20:20:18.679Z,4.7
2018-02-16T20:22:19.441Z,5.7
2018-02-16T20:24:19.237Z,5
2018-02-16T20:26:18.789Z,5.3
2018-02-16T20:28:18.578Z,5.2
2018-02-16T20:30:19.364Z,4.7
2018-02-16T20:32:19.154Z,5.5
2018-02-16T20:34:18.955Z,5.3
2018-02-16T20:36:18.506Z,4.7
2018-02-16T20:38:19.242Z,4.5
2018-02-16T20:40:18.583Z,4.7
2018-02-16T20:42:19.339Z,5
2018-02-16T20:44:19.130Z,4.6
2018-02-16T20:46:18.656Z,4.7
2018-02-16T20:48:19.465Z,5.3
2018-02-16T20:50:19.248Z,6.2
2018-02-16T20:52:19.035Z,4.5
2018-02-16T20:54:18.816Z,4.8
2018-02-16T20:56:19.368Z,3.9
2018-02-16T20:58:19.107Z,4.2
2018-02-16T21:00:18.921Z,4.4
2018-02-16T21:02:18.705Z,5.4
2018-02-16T21:04:19.450Z,5.7
2018-02-16T21:06:18.940Z,4.4
2018-02-16T21:08:18.719Z,4.4
2018-02-16T21:10:19.039Z,5.5
2018-02-16T21:12:18.835Z,5.2
2018-02-16T21:14:18.622Z,5.5
2018-02-16T21:16:19.071Z,5.7
2018-02-16T21:18:18.933Z,5.5
2018-02-16T21:20:18.762Z,5
2018-02-16T21:22:18.556Z,5.6
2018-02-16T21:24:19.315Z,5.4
2018-02-16T21:26:18.816Z,5.1
2018-02-16T21:28:18.600Z,5.4
2018-02-16T21:30:19.362Z,4.6
2018-02-16T21:32:19.150Z,5.2
2018-02-16T21:34:18.946Z,4.5
2018-02-16T21:36:19.466Z,6.2
2018-02-16T21:38:19.220Z,4.2
2018-02-16T21:40:18.471Z,4.6
2018-02-16T21:42:19.282Z,5.2
2018-02-16T21:44:19.068Z,5.6
2018-02-16T21:46:18.635Z,5.2
2018-02-16T21:48:19.410Z,5.6
2018-02-16T21:50:19.208Z,6.1
2018-02-16T21:52:18.989Z,5.8
2018-02-16T21:54:18.777Z,5.4
2018-02-16T21:56:19.334Z,4.7
2018-02-16T21:58:19.087Z,5.1
2018-02-16T22:00:18.890Z,5.1
2018-02-16T22:02:18.669Z,5
2018-02-16T22:04:19.432Z,4.9
2018-02-16T22:06:18.941Z,4.9
2018-02-16T22:08:18.733Z,5
2018-02-16T22:10:19.048Z,5.2
2018-02-16T22:12:18.833Z,5.8
2018-02-16T22:14:18.625Z,5.4
2018-02-16T22:16:19.105Z,5.1
2018-02-16T22:18:18.944Z,4.9
2018-02-16T22:20:18.753Z,4.9
2018-02-16T22:22:18.532Z,5.1
2018-02-16T22:24:19.301Z,6.9
2018-02-16T22:26:18.804Z,6.2
2018-02-16T22:28:18.583Z,5.9
2018-02-16T22:30:19.353Z,5.7
2018-02-16T22:32:19.141Z,5.5
2018-02-16T22:34:18.920Z,5.4
2018-02-16T22:36:19.431Z,5.7
2018-02-16T22:38:19.189Z,4.8
2018-02-16T22:40:19.425Z,5.2
2018-02-16T22:42:19.216Z,4.7
2018-02-16T22:44:19.053Z,6.1
2018-02-16T22:46:18.636Z,6.7
2018-02-16T22:48:19.369Z,5.3
2018-02-16T22:50:19.171Z,6.1
2018-02-16T22:52:18.965Z,6.3
2018-02-16T22:54:18.710Z,4.7
2018-02-16T22:56:19.190Z,5.6
2018-02-16T22:58:18.970Z,6.1
2018-02-16T23:00:18.736Z,5.5
2018-02-16T23:02:18.491Z,5.1
2018-02-16T23:04:19.239Z,5.1
2018-02-16T23:06:18.824Z,6.5
2018-02-16T23:08:18.614Z,6.3
2018-02-16T23:10:18.813Z,5.7
2018-02-16T23:12:18.575Z,6.9
2018-02-16T23:14:19.358Z,6.3
2018-02-16T23:16:19.436Z,6.2
2018-02-16T23:18:19.284Z,6.1
2018-02-16T23:20:19.089Z,5.9
2018-02-16T23:22:18.874Z,7.7
2018-02-16T23:24:18.624Z,7.2
2018-02-16T23:26:19.200Z,5.8
2018-02-16T23:28:18.987Z,5.8
2018-02-16T23:30:18.732Z,5.8
2018-02-16T23:32:18.489Z,6
2018-02-16T23:34:19.224Z,6.5
2018-02-16T23:36:18.810Z,6
2018-02-16T23:38:18.533Z,5.9
2018-02-16T23:40:18.743Z,7.2
2018-02-16T23:42:18.478Z,7
2018-02-16T23:44:19.320Z,5.5
2018-02-16T23:46:18.901Z,6.2
2018-02-16T23:48:18.648Z,6.8
2018-02-16T23:50:19.460Z,5.7
2018-02-16T23:52:19.248Z,6.1
2018-02-16T23:54:19.046Z,6.9
2018-02-16T23:56:18.646Z,6.2
2018-02-16T23:58:19.415Z,5.4
